Time;durP1;ratioP1;P1;durP2;ratioP2;P2;SDS_P1;SDS_P2;PMS_P1;PMS_P2;Temp;Humidity;BMP_temperature;BMP_pressure;BME280_temperature;BME280_humidity;BME280_pressure;Samples;Min_cycle;Max_cycle;Signal;HPM_P1;HPM_P2
2022/02/10 00:03:18;;;;;;;5.10;2.38;;;;;;;6.02;66.47;100675.41;5034548;28;20048;-53
2022/02/10 00:04:58;;;;;;;4.80;1.48;;;;;;;6.01;66.90;100668.53;5036181;28;20437;-52
2022/02/10 00:07:42;;;;;;;4.18;3.20;;;;;;;5.99;67.32;100675.31;5029657;28;20052;-57
2022/02/10 00:18:29;;;;;;;7.93;3.10;;;;;;;5.94;67.65;100661.47;5048507;28;20257;-56
2022/02/10 00:21:03;;;;;;;7.65;2.97;;;;;;;5.91;67.24;100668.25;5050171;28;20046;-53
2022/02/10 00:24:03;;;;;;;6.38;2.58;;;;;;;5.90;67.72;100661.38;5047464;28;20060;-51
2022/02/10 00:34:49;;;;;;;7.43;3.42;;;;;;;5.85;67.27;100652.69;5043320;28;20049;-56
2022/02/10 00:37:20;;;;;;;8.23;3.95;;;;;;;5.83;68.21;100654.34;5043492;28;20057;-53
2022/02/10 00:40:06;;;;;;;7.95;3.55;;;;;;;5.81;67.92;100661.13;5048248;28;20052;-54
2022/02/10 00:42:34;;;;;;;11.35;3.22;;;;;;;5.79;67.24;100655.97;5044554;28;20478;-54
2022/02/10 00:45:01;;;;;;;7.55;3.25;;;;;;;5.78;67.86;100651.63;5052918;28;20065;-59
2022/02/10 00:47:29;;;;;;;6.72;2.88;;;;;;;5.77;68.66;100643.88;5049816;28;20079;-51
2022/02/10 00:49:59;;;;;;;4.85;2.50;;;;;;;5.77;68.16;100651.59;5047004;28;20049;-56
2022/02/10 00:52:25;;;;;;;4.00;2.28;;;;;;;5.75;67.13;100641.25;5048723;28;20045;-59
2022/02/10 00:54:52;;;;;;;5.32;2.25;;;;;;;5.75;67.91;100640.41;5048424;28;20056;-55
2022/02/10 00:57:21;;;;;;;9.55;1.52;;;;;;;5.73;67.87;100642.06;5049081;28;20607;-56
2022/02/10 01:00:04;;;;;;;8.20;2.30;;;;;;;5.71;68.24;100636.03;5043765;28;20660;-49
2022/02/10 01:12:00;;;;;;;3.58;2.15;;;;;;;5.61;68.47;100622.06;5048453;28;20048;-54
2022/02/10 01:30:57;;;;;;;5.53;1.92;;;;;;;5.37;67.80;100639.41;5045551;28;20048;-53
2022/02/10 01:33:25;;;;;;;5.80;1.80;;;;;;;5.36;67.52;100642.78;5046564;28;20045;-58
2022/02/10 01:35:52;;;;;;;5.15;1.45;;;;;;;5.35;67.66;100640.19;5048035;28;20460;-56
2022/02/10 01:38:18;;;;;;;4.32;1.40;;;;;;;5.32;68.62;100638.41;5040773;28;20091;-54
2022/02/10 02:05:52;;;;;;;3.80;1.85;;;;;;;4.96;68.20;100644.22;5025032;28;20053;-58
2022/02/10 02:08:24;;;;;;;4.72;1.77;;;;;;;4.94;69.11;100645.84;5018847;28;21752;-55
2022/02/10 02:10:50;;;;;;;6.20;1.67;;;;;;;4.92;68.25;100635.53;5032945;28;20073;-55
2022/02/10 02:13:17;;;;;;;8.93;1.75;;;;;;;4.91;68.98;100633.81;5021925;28;20049;-56
2022/02/10 02:15:44;;;;;;;3.63;1.98;;;;;;;4.86;68.80;100636.22;5024910;28;20525;-52
2022/02/10 02:18:10;;;;;;;5.68;1.67;;;;;;;4.84;68.80;100632.75;5024261;28;20042;-59
2022/02/10 02:20:37;;;;;;;5.53;2.08;;;;;;;4.83;68.48;100636.13;5025666;28;20104;-58
2022/02/10 02:23:05;;;;;;;6.40;1.85;;;;;;;4.80;68.94;100630.88;5032203;28;20102;-55
2022/02/10 02:25:31;;;;;;;8.00;1.88;;;;;;;4.79;68.92;100631.72;5040585;28;20041;-57
2022/02/10 02:27:59;;;;;;;8.68;2.15;;;;;;;4.77;69.19;100628.25;5041265;28;20041;-53
2022/02/10 02:30:36;;;;;;;2.55;1.65;;;;;;;4.73;69.15;100623.84;5046893;28;20477;-54
2022/02/10 02:38:59;;;;;;;3.78;1.40;;;;;;;4.67;68.93;100629.69;5043080;28;20082;-53
2022/02/10 03:06:31;;;;;;;5.03;1.30;;;;;;;4.57;70.00;100633.66;5052421;28;20469;-53
2022/02/10 03:09:02;;;;;;;5.68;0.98;;;;;;;4.54;69.13;100633.53;5053713;28;20210;-54
2022/02/10 03:11:29;;;;;;;4.45;1.60;;;;;;;4.49;70.64;100629.94;5046548;28;20374;-55
2022/02/10 03:14:01;;;;;;;3.13;1.05;;;;;;;4.47;69.11;100626.47;5050778;28;21599;-52
2022/02/10 03:19:38;;;;;;;11.52;2.40;;;;;;;4.40;70.28;100629.66;5046473;28;20052;-56
2022/02/10 03:22:20;;;;;;;3.45;1.55;;;;;;;4.35;70.22;100617.56;5048811;28;20072;-57
2022/02/10 04:12:39;;;;;;;6.60;1.67;;;;;;;4.22;70.70;100621.41;5049349;28;20057;-52
2022/02/10 04:15:13;;;;;;;6.93;1.60;;;;;;;4.23;71.16;100624.88;5057688;28;20052;-55
2022/02/10 04:18:10;;;;;;;4.90;1.55;;;;;;;4.22;70.28;100629.13;5047505;28;20045;-53
2022/02/10 04:23:36;;;;;;;2.35;1.23;;;;;;;4.24;71.17;100635.19;5038853;28;20099;-53
2022/02/10 04:29:11;;;;;;;3.97;1.50;;;;;;;4.26;71.15;100637.78;5037098;28;20103;-57
2022/02/10 04:32:07;;;;;;;4.82;1.80;;;;;;;4.26;71.56;100637.78;5043534;28;20056;-58
2022/02/10 04:37:45;;;;;;;4.95;1.45;;;;;;;4.28;71.25;100636.13;5054428;28;20045;-50
2022/02/10 04:54:28;;;;;;;4.65;1.45;;;;;;;4.27;71.36;100634.41;5029797;28;20052;-58
2022/02/10 04:56:56;;;;;;;8.07;1.15;;;;;;;4.26;70.64;100632.66;5041647;28;20513;-59
2022/02/10 04:59:38;;;;;;;3.90;1.42;;;;;;;4.27;71.63;100643.78;5047242;28;20041;-51
2022/02/10 05:02:43;;;;;;;7.53;1.48;;;;;;;4.26;71.43;100627.53;5046946;28;22360;-55
2022/02/10 05:05:31;;;;;;;3.30;1.23;;;;;;;4.25;72.01;100636.03;5044811;28;20049;-52
2022/02/10 05:08:06;;;;;;;4.82;1.42;;;;;;;4.24;71.83;100639.44;5041539;28;20061;-55
2022/02/10 05:15:03;;;;;;;2.72;1.35;;;;;;;4.24;71.64;100636.88;5042970;28;20041;-55
2022/02/10 05:16:30;;;;;;;4.20;1.60;;;;;;;4.23;72.15;100635.13;5040514;28;20130;-50
2022/02/10 05:19:13;;;;;;;5.95;2.03;;;;;;;4.22;72.27;100635.97;5040357;28;20061;-56
2022/02/10 05:21:46;;;;;;;4.05;1.75;;;;;;;4.22;70.82;100633.41;5043388;28;20049;-52
2022/02/10 05:31:21;;;;;;;9.93;1.45;;;;;;;4.21;71.55;100639.31;5049297;28;20091;-52
2022/02/10 05:32:56;;;;;;;4.00;1.92;;;;;;;4.16;71.79;100636.63;5055684;28;20504;-54
2022/02/10 05:35:29;;;;;;;6.05;1.50;;;;;;;4.15;71.61;100634.00;5040110;28;20103;-51
2022/02/10 05:38:09;;;;;;;2.13;1.33;;;;;;;4.16;71.74;100639.19;5045150;28;20102;-54
2022/02/10 05:43:40;;;;;;;5.15;1.75;;;;;;;4.11;71.94;100618.53;5034923;28;20045;-53
2022/02/10 05:46:17;;;;;;;3.65;1.70;;;;;;;4.12;71.98;100619.38;5046039;28;20075;-53
2022/02/10 05:52:16;;;;;;;2.55;1.88;;;;;;;4.11;71.79;100633.91;5044677;28;20433;-56
2022/02/10 05:57:14;;;;;;;2.85;1.20;;;;;;;4.11;71.75;100630.44;5047063;28;20052;-54
2022/02/10 06:50:09;;;;;;;2.40;1.40;;;;;;;3.88;72.08;100658.75;5044953;28;20110;-55
2022/02/10 06:52:53;;;;;;;8.20;1.90;;;;;;;3.84;72.51;100660.34;5045622;28;20046;-56
2022/02/10 06:55:41;;;;;;;5.55;1.33;;;;;;;3.83;72.00;100658.59;5041722;28;20049;-58
2022/02/10 07:04:00;;;;;;;2.42;0.70;;;;;;;3.78;72.03;100678.06;5042517;28;20693;-55
2022/02/10 07:15:10;;;;;;;4.65;2.13;;;;;;;3.71;71.56;100684.66;5046559;28;20234;-56
2022/02/10 07:54:11;;;;;;;9.18;1.50;;;;;;;3.57;72.30;100696.97;5035596;28;22389;-54
2022/02/10 08:00:03;;;;;;;10.73;2.70;;;;;;;3.60;71.60;100711.56;5045581;28;20045;-49
2022/02/10 08:29:02;;;;;;;13.05;4.85;;;;;;;4.11;71.80;100726.19;5040369;28;20543;-56
2022/02/10 08:49:57;;;;;;;12.05;3.75;;;;;;;4.60;70.59;100745.75;5049472;28;20045;-54
2022/02/10 08:55:24;;;;;;;14.30;4.10;;;;;;;4.62;70.52;100745.00;5044209;28;20049;-54
2022/02/10 09:01:11;;;;;;;11.35;2.90;;;;;;;4.65;70.12;100758.72;5047570;28;20061;-58
2022/02/10 09:03:52;;;;;;;12.18;4.35;;;;;;;4.58;70.11;100758.53;5042126;28;20056;-53
2022/02/10 09:06:27;;;;;;;8.23;2.25;;;;;;;4.56;70.33;100757.59;5051249;28;20408;-58
2022/02/10 09:10:01;;;;;;;6.60;2.35;;;;;;;4.56;70.48;100757.59;5049395;28;20045;-57
2022/02/10 09:14:55;;;;;;;9.13;2.70;;;;;;;4.64;70.31;100752.75;5045773;28;20055;-56
2022/02/10 09:18:37;;;;;;;10.38;3.05;;;;;;;4.70;69.93;100757.19;5055466;28;20460;-55
2022/02/10 09:20:19;;;;;;;6.57;1.90;;;;;;;4.78;69.72;100745.50;5044054;28;20055;-55
2022/02/10 09:23:45;;;;;;;10.20;2.13;;;;;;;4.92;70.64;100750.19;5047323;28;20057;-57
2022/02/10 09:49:35;;;;;;;5.85;2.25;;;;;;;9.90;62.37;100731.56;5049412;28;20492;-57
2022/02/10 09:56:25;;;;;;;9.73;3.45;;;;;;;10.46;59.42;100726.09;5051939;28;20488;-53
2022/02/10 09:59:07;;;;;;;9.18;2.30;;;;;;;10.58;58.60;100727.94;5050514;28;20052;-57
2022/02/10 10:01:41;;;;;;;10.88;3.63;;;;;;;10.49;58.66;100741.66;5047596;28;20037;-54
2022/02/10 10:04:16;;;;;;;16.30;4.28;;;;;;;10.63;58.71;100738.31;5043094;28;20045;-57
2022/02/10 10:09:47;;;;;;;9.02;3.75;;;;;;;10.71;57.93;100735.78;5034077;28;20079;-57
2022/02/10 10:12:43;;;;;;;8.20;2.78;;;;;;;10.82;56.89;100733.28;5042353;28;20053;-56
2022/02/10 10:15:17;;;;;;;14.15;4.30;;;;;;;11.20;57.25;100735.25;5051261;28;20052;-57
2022/02/10 10:18:28;;;;;;;11.35;2.88;;;;;;;11.63;55.32;100738.91;5043333;28;20463;-53
2022/02/10 10:24:26;;;;;;;17.20;4.85;;;;;;;12.33;53.33;100747.78;5022592;28;20056;-57
2022/02/10 10:27:12;;;;;;;18.08;5.20;;;;;;;12.13;53.16;100754.69;5041655;28;20048;-55
2022/02/10 10:48:21;;;;;;;7.63;2.13;;;;;;;12.10;53.22;100754.66;5036213;28;20075;-56
2022/02/10 10:49:45;;;;;;;15.13;4.35;;;;;;;12.79;52.18;100747.78;5040836;28;20480;-54
2022/02/10 10:55:13;;;;;;;9.40;3.05;;;;;;;13.57;47.86;100745.03;5048183;28;20048;-55
2022/02/10 10:57:42;;;;;;;5.57;2.33;;;;;;;13.56;46.31;100749.41;5038395;28;20045;-56
2022/02/10 11:00:35;;;;;;;9.27;2.22;;;;;;;13.30;46.73;100747.72;5036205;28;20064;-55
2022/02/10 11:39:40;;;;;;;5.25;2.38;;;;;;;10.13;51.29;100748.19;5047744;28;20037;-54
2022/02/10 11:42:33;;;;;;;5.32;1.65;;;;;;;10.02;50.25;100736.00;5047210;28;20060;-57
2022/02/10 11:45:45;;;;;;;3.38;1.73;;;;;;;9.73;50.33;100733.94;5041757;28;20108;-52
2022/02/10 11:59:38;;;;;;;4.10;1.75;;;;;;;9.23;48.86;100727.28;5064683;28;20538;-59
2022/02/10 12:01:22;;;;;;;3.95;2.05;;;;;;;8.40;50.54;100723.41;5053239;28;20048;-59
2022/02/10 12:30:36;;;;;;;3.50;0.52;;;;;;;8.17;50.64;100710.97;5050461;28;20434;-52
2022/02/10 12:44:13;;;;;;;4.88;1.40;;;;;;;8.26;52.61;100711.97;5042278;28;20103;-54
2022/02/10 13:03:06;;;;;;;5.32;2.40;;;;;;;8.31;51.28;100713.81;5041186;28;20128;-58
2022/02/10 13:23:23;;;;;;;3.70;1.45;;;;;;;8.09;52.08;100700.53;5034216;28;21291;-54
2022/02/10 13:23:42;;;;;;;5.78;1.48;;;;;;;8.07;52.96;100683.28;5027046;28;20060;-52
2022/02/10 13:27:17;;;;;;;4.05;1.42;;;;;;;8.02;51.69;100684.91;5022605;28;20555;-60
2022/02/10 13:30:09;;;;;;;6.50;1.60;;;;;;;7.95;53.13;100687.38;5023543;28;20045;-55
2022/02/10 13:50:04;;;;;;;6.32;1.83;;;;;;;7.75;53.57;100686.13;5020799;28;20117;-55
2022/02/10 14:11:43;;;;;;;2.03;1.20;;;;;;;7.03;52.84;100670.06;5025326;28;20061;-54
2022/02/10 14:13:54;;;;;;;4.32;1.42;;;;;;;6.94;53.05;100665.63;5028367;28;20587;-55
2022/02/10 14:16:34;;;;;;;2.13;1.38;;;;;;;6.92;53.60;100664.69;5027524;28;20057;-52
2022/02/10 14:19:13;;;;;;;6.25;1.75;;;;;;;6.99;54.17;100667.44;5026848;28;20516;-54
2022/02/10 14:21:48;;;;;;;4.75;1.67;;;;;;;6.94;51.98;100660.47;5024388;28;20114;-53
2022/02/10 14:27:02;;;;;;;2.75;1.42;;;;;;;7.02;52.01;100657.16;5022967;28;21932;-56
2022/02/10 14:29:29;;;;;;;6.85;1.38;;;;;;;7.09;52.95;100660.75;5019699;28;20109;-50
2022/02/10 14:31:56;;;;;;;3.53;1.20;;;;;;;7.05;51.17;100662.38;5018216;28;20443;-57
2022/02/10 14:34:26;;;;;;;4.95;1.70;;;;;;;7.03;50.77;100658.94;5017195;28;20076;-53
2022/02/10 14:37:12;;;;;;;1.60;1.20;;;;;;;6.97;50.28;100663.94;5017086;28;20139;-54
2022/02/10 14:43:03;;;;;;;3.75;1.60;;;;;;;6.98;51.28;100665.66;5013302;28;20131;-53
2022/02/10 15:16:32;;;;;;;4.57;1.33;;;;;;;6.99;50.44;100667.44;5020188;28;20049;-55
2022/02/10 15:21:56;;;;;;;5.53;1.23;;;;;;;6.94;50.95;100657.91;5028280;28;20045;-54
2022/02/10 15:29:13;;;;;;;3.45;1.50;;;;;;;6.94;51.92;100675.03;5023343;28;20045;-52
2022/02/10 15:33:30;;;;;;;5.80;1.45;;;;;;;6.82;52.43;100680.78;5030597;28;20057;-51
2022/02/10 15:36:06;;;;;;;1.38;1.00;;;;;;;6.71;52.72;100684.78;5031399;28;20049;-56
2022/02/10 15:49:48;;;;;;;12.73;4.50;;;;;;;5.97;57.29;100702.66;5020924;28;20160;-51
2022/02/10 15:53:08;;;;;;;35.78;11.93;;;;;;;5.86;57.18;100694.69;5023358;28;20781;-53
2022/02/10 15:55:36;;;;;;;3.70;2.60;;;;;;;5.78;57.58;100692.75;5020942;28;20098;-54
2022/02/10 16:17:28;;;;;;;1.52;1.23;;;;;;;5.21;58.50;100668.03;5020156;28;20049;-51
2022/02/10 16:19:55;;;;;;;5.97;1.80;;;;;;;5.14;59.10;100678.13;5021019;28;20493;-52
2022/02/10 16:22:24;;;;;;;5.03;2.33;;;;;;;5.08;59.49;100683.09;5021135;28;20053;-58
2022/02/10 16:24:57;;;;;;;7.75;1.75;;;;;;;5.06;58.62;100689.00;5022483;28;20053;-56
2022/02/10 16:27:28;;;;;;;6.25;1.70;;;;;;;5.03;59.53;100692.34;5020866;28;20244;-52
2022/02/10 16:30:02;;;;;;;4.70;1.85;;;;;;;4.96;59.64;100693.00;5021867;28;20460;-50
2022/02/10 16:32:34;;;;;;;3.72;1.27;;;;;;;4.92;59.29;100701.41;5022523;28;20118;-54
2022/02/10 16:35:08;;;;;;;3.85;1.33;;;;;;;4.85;60.02;100718.31;5020753;28;20052;-52
2022/02/10 16:37:43;;;;;;;4.13;1.17;;;;;;;4.80;59.45;100713.03;5023529;28;20048;-54
2022/02/10 16:40:15;;;;;;;4.68;1.92;;;;;;;4.77;59.68;100707.81;5021238;28;20052;-51
2022/02/10 16:42:41;;;;;;;1.08;0.17;;;;;;;4.71;59.74;100710.19;5020778;28;20662;-52
2022/02/10 16:45:13;;;;;;;5.43;1.77;;;;;;;4.69;60.24;100716.97;5022985;28;20542;-55
2022/02/10 16:47:39;;;;;;;1.20;0.95;;;;;;;4.62;59.76;100714.19;5019877;28;20045;-53
2022/02/10 16:50:11;;;;;;;8.23;2.03;;;;;;;4.59;60.26;100724.34;5019554;28;20118;-53
2022/02/10 16:52:48;;;;;;;5.28;1.73;;;;;;;4.54;59.94;100738.72;5015911;28;20045;-54
2022/02/10 16:55:34;;;;;;;;;;;;;;;4.43;59.59;100745.19;5018636;28;20138;-50
2022/02/10 17:01:39;;;;;;;10.50;1.60;;;;;;;4.35;60.18;100761.19;5016157;28;20052;-54
2022/02/10 17:04:15;;;;;;;6.97;2.83;;;;;;;4.29;59.84;100760.97;5019465;28;20467;-57
2022/02/10 17:16:21;;;;;;;6.10;2.53;;;;;;;4.10;60.68;100759.47;5011806;28;20131;-53
2022/02/10 17:19:06;;;;;;;3.25;1.75;;;;;;;4.07;60.60;100760.25;5012820;28;20138;-53
2022/02/10 17:25:06;;;;;;;7.35;2.47;;;;;;;4.03;60.19;100758.41;5014704;28;20114;-52
2022/02/10 17:27:08;;;;;;;7.32;3.05;;;;;;;3.92;60.56;100755.41;5012746;28;21167;-55
2022/02/10 17:31:19;;;;;;;4.57;1.92;;;;;;;3.89;61.18;100757.00;5017645;28;20574;-53
2022/02/10 17:32:57;;;;;;;6.57;1.95;;;;;;;3.82;60.65;100759.34;5026595;28;20102;-59
2022/02/10 17:46:41;;;;;;;4.32;0.93;;;;;;;3.60;61.30;100757.69;5017206;28;20405;-50
2022/02/10 17:52:07;;;;;;;23.42;6.22;;;;;;;3.52;61.80;100757.41;5017843;28;20065;-55
2022/02/10 17:54:33;;;;;;;26.85;8.27;;;;;;;3.50;61.25;100760.72;5017564;28;20092;-53
2022/02/10 17:57:00;;;;;;;17.60;4.63;;;;;;;3.45;61.69;100758.84;5019396;28;20057;-51
2022/02/10 17:59:28;;;;;;;10.32;2.53;;;;;;;3.44;61.09;100748.53;5016965;28;20073;-51
2022/02/10 18:01:55;;;;;;;7.22;3.13;;;;;;;3.42;61.52;100747.63;5023500;28;20048;-53
2022/02/10 18:04:23;;;;;;;4.55;2.03;;;;;;;3.41;61.77;100751.88;5041501;28;20045;-54
2022/02/10 18:06:54;;;;;;;5.47;1.75;;;;;;;3.40;61.40;100765.50;5043212;28;22144;-52
2022/02/10 18:11:10;;;;;;;5.60;1.42;;;;;;;3.39;61.94;100773.13;5042916;28;20507;-54
2022/02/10 18:15:01;;;;;;;7.03;0.85;;;;;;;3.38;60.95;100791.88;5024203;28;20449;-52
2022/02/10 18:17:45;;;;;;;3.40;1.35;;;;;;;3.37;61.62;100790.13;5017730;28;20525;-53
2022/02/10 18:20:17;;;;;;;3.92;1.27;;;;;;;3.34;61.63;100796.88;5021954;28;20072;-55
2022/02/10 18:23:07;;;;;;;8.32;1.60;;;;;;;3.33;61.55;100795.13;5018841;28;20126;-51
2022/02/10 18:25:48;;;;;;;3.70;1.23;;;;;;;3.32;61.10;100795.91;5020279;28;21219;-54
2022/02/10 18:34:48;;;;;;;2.45;2.22;;;;;;;3.31;61.32;100817.22;5042563;28;20473;-52
2022/02/10 18:38:12;;;;;;;1.95;1.10;;;;;;;3.38;61.19;100827.72;5039330;28;20080;-54
2022/02/10 19:02:28;;;;;;;15.88;3.53;;;;;;;3.78;61.77;100860.00;5041926;28;20053;-49
2022/02/10 19:06:33;;;;;;;8.05;3.38;;;;;;;3.80;61.88;100867.75;5046598;28;20052;-54
2022/02/10 19:07:51;;;;;;;4.60;2.00;;;;;;;3.81;61.86;100870.38;5047378;28;20048;-51
2022/02/10 19:10:15;;;;;;;7.75;3.30;;;;;;;3.83;61.60;100879.00;5041605;28;20049;-57
2022/02/10 19:12:45;;;;;;;4.95;2.13;;;;;;;3.83;61.40;100868.75;5043959;28;20079;-54
2022/02/10 19:15:24;;;;;;;14.25;3.55;;;;;;;3.88;61.91;100875.75;5044932;28;20096;-49
2022/02/10 19:17:53;;;;;;;3.75;2.03;;;;;;;3.86;61.19;100875.69;5042923;28;20049;-56
2022/02/10 19:20:21;;;;;;;6.45;2.05;;;;;;;3.88;61.97;100875.75;5044283;28;20091;-54
2022/02/10 19:22:48;;;;;;;5.07;2.58;;;;;;;3.84;62.01;100878.19;5043060;28;20110;-56
2022/02/10 19:25:16;;;;;;;11.27;1.77;;;;;;;3.82;61.82;100881.50;5046350;28;20060;-53
2022/02/10 19:27:43;;;;;;;5.85;1.52;;;;;;;3.80;62.14;100889.13;5045254;28;20048;-50
2022/02/10 19:30:13;;;;;;;4.43;2.50;;;;;;;3.79;62.49;100897.63;5049833;28;20049;-56
2022/02/10 19:32:44;;;;;;;6.95;2.42;;;;;;;3.79;62.37;100902.75;5046916;28;20087;-59
2022/02/10 19:35:12;;;;;;;13.57;4.18;;;;;;;3.78;62.53;100890.75;5050774;28;20485;-51
2022/02/10 19:37:39;;;;;;;23.15;6.78;;;;;;;3.77;62.07;100894.13;5046276;28;20048;-49
2022/02/10 19:40:06;;;;;;;28.13;5.57;;;;;;;3.74;62.76;100894.00;5047119;28;21808;-53
2022/02/10 19:42:35;;;;;;;20.85;5.65;;;;;;;3.75;62.74;100898.31;5045205;28;20053;-52
2022/02/10 19:45:06;;;;;;;14.95;2.53;;;;;;;3.73;63.14;100915.31;5047094;28;20111;-57
2022/02/10 19:47:36;;;;;;;26.08;5.60;;;;;;;3.72;62.56;100905.91;5044779;28;20052;-52
2022/02/10 19:50:10;;;;;;;6.60;3.08;;;;;;;3.71;63.48;100907.56;5046296;28;20099;-54
2022/02/10 19:52:39;;;;;;;10.20;3.03;;;;;;;3.72;63.16;100905.91;5046175;28;20976;-55
2022/02/10 19:55:10;;;;;;;9.38;2.47;;;;;;;3.75;62.71;100916.25;5049021;28;20057;-53
2022/02/10 19:57:38;;;;;;;10.90;4.18;;;;;;;3.76;62.67;100918.00;5043977;28;20045;-50
2022/02/10 20:00:10;;;;;;;5.90;2.42;;;;;;;3.81;62.93;100915.59;5047737;28;20075;-51
2022/02/10 20:02:37;;;;;;;4.97;1.77;;;;;;;3.85;63.26;100913.22;5044199;28;20119;-53
2022/02/10 20:05:04;;;;;;;5.78;2.35;;;;;;;3.86;63.17;100922.66;5052163;28;20504;-55
2022/02/10 20:07:37;;;;;;;9.27;3.20;;;;;;;3.88;63.37;100930.41;5050130;28;20052;-51
2022/02/10 20:10:05;;;;;;;9.73;2.53;;;;;;;3.91;63.46;100933.09;5047699;28;20106;-56
2022/02/10 20:12:32;;;;;;;8.82;2.67;;;;;;;3.90;63.46;100935.59;5047807;28;20049;-56
2022/02/10 20:14:58;;;;;;;6.55;2.25;;;;;;;3.92;63.22;100934.84;5049984;28;20045;-53
2022/02/10 20:17:25;;;;;;;8.48;2.13;;;;;;;3.92;63.50;100934.00;5043403;28;20088;-52
2022/02/10 20:19:51;;;;;;;3.70;1.73;;;;;;;3.91;63.88;100937.34;5051213;28;20049;-52
2022/02/10 20:22:18;;;;;;;11.52;2.33;;;;;;;3.90;63.49;100925.34;5046982;28;20080;-52
2022/02/10 20:24:46;;;;;;;2.30;1.70;;;;;;;3.89;63.97;100931.31;5053335;28;20040;-53
2022/02/10 20:27:13;;;;;;;8.57;2.47;;;;;;;3.89;63.38;100944.13;5044153;28;20084;-55
2022/02/10 20:29:39;;;;;;;5.78;2.25;;;;;;;3.91;63.78;100947.59;5053340;28;20096;-52
2022/02/10 20:32:07;;;;;;;3.72;1.90;;;;;;;3.89;63.72;100954.38;5043626;28;20099;-53
2022/02/10 20:34:34;;;;;;;4.80;2.10;;;;;;;3.88;63.50;100952.63;5051457;28;20053;-52
2022/02/10 20:37:03;;;;;;;2.22;1.65;;;;;;;3.86;63.31;100962.81;5044521;28;20461;-53
2022/02/10 20:39:30;;;;;;;7.35;2.45;;;;;;;3.83;63.97;100955.00;5044698;28;20444;-54
2022/02/10 20:42:04;;;;;;;4.50;2.35;;;;;;;3.81;63.89;100952.38;5044857;28;20099;-51
2022/02/10 20:44:32;;;;;;;10.93;2.45;;;;;;;3.75;63.95;100944.44;5047644;28;20122;-55
2022/02/10 20:46:59;;;;;;;2.33;1.77;;;;;;;3.68;64.47;100937.34;5042825;28;20045;-50
2022/02/10 20:49:27;;;;;;;3.08;2.05;;;;;;;3.64;64.32;100938.03;5039738;28;20057;-56
2022/02/10 20:51:56;;;;;;;2.47;2.05;;;;;;;3.59;63.55;100956.63;5053311;28;20444;-55
2022/02/10 20:54:26;;;;;;;2.60;1.88;;;;;;;3.53;64.75;100961.53;5034181;28;20056;-51
2022/02/10 20:56:53;;;;;;;7.95;2.20;;;;;;;3.51;63.96;100958.00;5028470;28;20056;-53
2022/02/10 20:59:29;;;;;;;5.93;2.33;;;;;;;3.50;64.10;100969.06;5024747;28;20731;-51
2022/02/10 21:02:05;;;;;;;6.03;2.40;;;;;;;3.50;64.51;100971.63;5023527;28;20053;-54
2022/02/10 21:04:37;;;;;;;6.32;1.58;;;;;;;3.49;64.83;100981.81;5027446;28;20053;-54
2022/02/10 21:07:17;;;;;;;6.50;2.85;;;;;;;3.50;65.51;100975.88;5021320;28;20112;-53
2022/02/10 21:09:55;;;;;;;4.57;1.58;;;;;;;3.47;64.45;100981.75;5023075;28;20049;-59
2022/02/10 21:12:23;;;;;;;4.35;2.25;;;;;;;3.48;64.36;100973.28;5023586;28;20041;-55
2022/02/10 21:14:51;;;;;;;7.40;2.38;;;;;;;3.47;65.07;100977.50;5022355;28;20124;-51
2022/02/10 21:17:23;;;;;;;5.75;1.70;;;;;;;3.47;64.78;100984.31;5014573;28;20091;-53
2022/02/10 21:19:50;;;;;;;5.03;2.35;;;;;;;3.48;64.90;100988.66;5020851;28;20095;-52
2022/02/10 21:22:19;;;;;;;7.93;1.77;;;;;;;3.49;64.14;101000.63;5022367;28;21280;-52
2022/02/10 21:24:53;;;;;;;11.00;3.25;;;;;;;3.51;65.09;101006.69;5027454;28;20100;-55
2022/02/10 21:27:31;;;;;;;29.20;6.93;;;;;;;3.54;64.46;100999.13;5021061;28;20053;-54
2022/02/10 21:30:03;;;;;;;9.27;3.40;;;;;;;3.54;64.91;100994.00;5024364;28;20057;-52
2022/02/10 21:32:33;;;;;;;8.85;3.05;;;;;;;3.56;64.48;101001.75;5028182;28;20053;-55
2022/02/10 21:35:11;;;;;;;15.60;2.95;;;;;;;3.56;64.53;100988.94;5030178;28;20103;-53
2022/02/10 21:37:51;;;;;;;6.93;3.00;;;;;;;3.50;64.73;100992.13;5024829;28;20053;-54
2022/02/10 21:41:02;;;;;;;8.70;2.17;;;;;;;3.43;64.86;100995.25;5025422;28;20537;-55
2022/02/10 21:47:21;;;;;;;9.68;1.90;;;;;;;3.37;65.82;101016.34;5043062;28;20047;-51
2022/02/10 21:52:45;;;;;;;6.05;1.95;;;;;;;3.39;65.26;101029.22;5037554;28;20536;-51
2022/02/10 21:54:36;;;;;;;4.63;1.75;;;;;;;3.39;65.98;101034.34;5035266;28;20122;-51
2022/02/10 21:57:09;;;;;;;3.70;1.45;;;;;;;3.37;66.26;101026.59;5035771;28;20045;-53
2022/02/10 22:00:00;;;;;;;5.05;1.88;;;;;;;3.36;65.63;101021.41;5039699;28;20041;-52
2022/02/10 22:03:22;;;;;;;7.30;1.10;;;;;;;3.31;67.38;101028.91;5037065;28;20068;-55
2022/02/10 22:06:08;;;;;;;6.72;1.23;;;;;;;3.29;66.51;101033.97;5030775;28;20390;-52
2022/02/10 22:08:42;;;;;;;6.38;2.03;;;;;;;3.28;66.83;101029.63;5032026;28;20046;-55
2022/02/10 22:10:53;;;;;;;6.28;1.63;;;;;;;3.28;67.31;101026.22;5037709;28;20588;-51
2022/02/10 22:16:44;;;;;;;4.70;2.83;;;;;;;3.25;67.11;101029.53;5037163;28;21295;-53
2022/02/10 22:19:04;;;;;;;8.35;2.40;;;;;;;3.19;67.20;101039.47;5026589;28;20084;-50
2022/02/10 22:21:35;;;;;;;7.05;1.83;;;;;;;3.14;66.80;101033.28;5035266;28;20049;-53
2022/02/10 22:24:07;;;;;;;9.18;2.42;;;;;;;3.10;67.65;101042.50;5036941;28;20457;-53
2022/02/10 22:26:33;;;;;;;4.50;1.58;;;;;;;3.03;67.97;101051.59;5038554;28;20431;-50
2022/02/10 22:29:06;;;;;;;3.85;1.73;;;;;;;2.99;67.80;101052.28;5038756;28;20083;-52
2022/02/10 22:31:45;;;;;;;2.83;1.85;;;;;;;2.95;66.86;101052.97;5041559;28;20053;-53
2022/02/10 22:37:02;;;;;;;5.53;1.88;;;;;;;2.83;68.18;101050.72;5034573;28;20060;-53
2022/02/10 22:39:35;;;;;;;4.63;1.65;;;;;;;2.78;68.44;101049.63;5039958;28;20122;-51
2022/02/10 22:42:02;;;;;;;8.52;2.00;;;;;;;2.70;69.28;101052.72;5038535;28;20134;-52
2022/02/10 22:44:29;;;;;;;3.88;1.85;;;;;;;2.68;68.70;101053.47;5036613;28;20049;-50
2022/02/10 22:46:55;;;;;;;5.80;1.55;;;;;;;2.65;68.56;101053.31;5034307;28;20057;-52
2022/02/10 22:49:22;;;;;;;4.57;2.05;;;;;;;2.62;68.09;101053.16;5036888;28;20107;-54
2022/02/10 22:51:49;;;;;;;4.18;1.60;;;;;;;2.60;69.21;101052.22;5036547;28;20072;-50
2022/02/10 22:54:18;;;;;;;4.40;1.15;;;;;;;2.54;69.02;101058.78;5036606;28;22513;-52
2022/02/10 22:56:46;;;;;;;5.32;1.90;;;;;;;2.51;70.53;101051.00;5035631;28;20107;-49
2022/02/10 22:59:13;;;;;;;3.65;1.83;;;;;;;2.51;69.83;101058.69;5035871;28;20059;-52
2022/02/10 23:01:41;;;;;;;5.75;2.47;;;;;;;2.49;70.92;101061.94;5031773;28;20068;-51
2022/02/10 23:04:08;;;;;;;5.35;1.95;;;;;;;2.48;70.83;101058.53;5041742;28;20045;-54
2022/02/10 23:06:36;;;;;;;2.47;1.27;;;;;;;2.49;71.00;101062.84;5039050;28;21003;-55
2022/02/10 23:09:29;;;;;;;2.30;1.73;;;;;;;2.54;71.37;101063.91;5053263;28;20094;-50
2022/02/10 23:11:52;;;;;;;5.55;1.48;;;;;;;2.54;71.74;101071.59;5035905;28;20045;-53
2022/02/10 23:14:19;;;;;;;2.58;1.60;;;;;;;2.56;70.28;101067.44;5043473;28;20115;-54
2022/02/10 23:16:46;;;;;;;2.80;1.75;;;;;;;2.56;71.69;101071.66;5042489;28;20104;-56
2022/02/10 23:19:14;;;;;;;2.95;1.30;;;;;;;2.55;71.13;101077.59;5041729;28;20057;-50
2022/02/10 23:21:41;;;;;;;4.22;1.63;;;;;;;2.54;72.13;101081.81;5030110;28;20040;-54
2022/02/10 23:24:08;;;;;;;2.72;1.35;;;;;;;2.52;71.24;101082.56;5047868;28;20053;-52
2022/02/10 23:26:35;;;;;;;2.95;1.33;;;;;;;2.51;72.51;101089.38;5048065;28;20646;-51
2022/02/10 23:29:03;;;;;;;1.40;1.30;;;;;;;2.52;71.19;101098.78;5047099;28;20060;-52
2022/02/10 23:31:29;;;;;;;2.10;2.00;;;;;;;2.52;70.87;101103.91;5048969;28;20104;-49
2022/02/10 23:34:00;;;;;;;4.47;1.52;;;;;;;2.51;71.40;101107.28;5046736;28;20146;-52
2022/02/10 23:36:49;;;;;;;2.28;2.05;;;;;;;2.49;72.75;101108.88;5047284;28;20052;-49
2022/02/10 23:39:25;;;;;;;2.25;1.10;;;;;;;2.48;71.98;101109.69;5046330;28;20564;-51
2022/02/10 23:42:05;;;;;;;2.38;2.03;;;;;;;2.50;72.74;101120.84;5048843;28;20041;-53
2022/02/10 23:44:37;;;;;;;1.80;1.35;;;;;;;2.49;71.56;101124.22;5046548;28;20115;-54
2022/02/10 23:47:07;;;;;;;1.27;1.17;;;;;;;2.44;72.88;101115.44;5046505;28;20099;-53
2022/02/10 23:49:36;;;;;;;3.42;1.35;;;;;;;2.41;72.14;101126.41;5045429;28;20072;-57
2022/02/10 23:52:06;;;;;;;1.63;1.52;;;;;;;2.43;72.95;101123.91;5045836;28;20659;-53